sensor_id;sensor_type;location;lat;lon;timestamp;temperature;humidity
34726;DHT22;20951;50.818;4.344;2023-05-24T00:01:23;11.70;99.90
34726;DHT22;20951;50.818;4.344;2023-05-24T00:03:54;11.70;99.90
34726;DHT22;20951;50.818;4.344;2023-05-24T00:06:26;11.70;99.90
34726;DHT22;20951;50.818;4.344;2023-05-24T00:08:57;11.70;99.90
34726;DHT22;20951;50.818;4.344;2023-05-24T00:11:29;11.70;99.90
34726;DHT22;20951;50.818;4.344;2023-05-24T00:14:00;11.70;99.90
34726;DHT22;20951;50.818;4.344;2023-05-24T00:16:32;11.60;99.90
34726;DHT22;20951;50.818;4.344;2023-05-24T00:19:03;11.60;99.90
34726;DHT22;20951;50.818;4.344;2023-05-24T00:21:33;11.60;99.90
34726;DHT22;20951;50.818;4.344;2023-05-24T00:24:04;11.60;99.90
34726;DHT22;20951;50.818;4.344;2023-05-24T00:26:37;11.60;99.90
34726;DHT22;20951;50.818;4.344;2023-05-24T00:29:08;11.60;99.90
34726;DHT22;20951;50.818;4.344;2023-05-24T00:31:40;11.50;99.90
34726;DHT22;20951;50.818;4.344;2023-05-24T00:34:12;11.60;99.90
34726;DHT22;20951;50.818;4.344;2023-05-24T00:36:44;11.50;99.90
34726;DHT22;20951;50.818;4.344;2023-05-24T00:39:14;11.50;99.90
34726;DHT22;20951;50.818;4.344;2023-05-24T00:41:46;11.40;99.90
34726;DHT22;20951;50.818;4.344;2023-05-24T00:44:17;11.40;99.90
34726;DHT22;20951;50.818;4.344;2023-05-24T00:46:48;11.40;99.90
34726;DHT22;20951;50.818;4.344;2023-05-24T00:49:20;11.40;99.90
34726;DHT22;20951;50.818;4.344;2023-05-24T00:51:52;11.30;99.90
34726;DHT22;20951;50.818;4.344;2023-05-24T00:54:22;11.30;99.90
34726;DHT22;20951;50.818;4.344;2023-05-24T00:56:55;11.40;99.90
34726;DHT22;20951;50.818;4.344;2023-05-24T00:59:26;11.40;99.90
34726;DHT22;20951;50.818;4.344;2023-05-24T01:01:57;11.40;99.90
34726;DHT22;20951;50.818;4.344;2023-05-24T01:04:28;11.40;99.90
34726;DHT22;20951;50.818;4.344;2023-05-24T01:07:26;11.40;99.90
34726;DHT22;20951;50.818;4.344;2023-05-24T01:10:09;11.50;99.90
34726;DHT22;20951;50.818;4.344;2023-05-24T01:13:00;11.30;99.90
34726;DHT22;20951;50.818;4.344;2023-05-24T01:15:51;11.30;99.90
34726;DHT22;20951;50.818;4.344;2023-05-24T01:18:23;11.30;99.90
34726;DHT22;20951;50.818;4.344;2023-05-24T01:26:30;11.20;99.90
34726;DHT22;20951;50.818;4.344;2023-05-24T01:29:01;11.30;99.90
34726;DHT22;20951;50.818;4.344;2023-05-24T01:31:32;11.20;99.90
34726;DHT22;20951;50.818;4.344;2023-05-24T01:34:02;11.20;99.90
34726;DHT22;20951;50.818;4.344;2023-05-24T01:36:32;11.20;99.90
34726;DHT22;20951;50.818;4.344;2023-05-24T01:39:03;11.20;99.90
34726;DHT22;20951;50.818;4.344;2023-05-24T01:44:54;11.30;99.90
34726;DHT22;20951;50.818;4.344;2023-05-24T01:50:48;11.10;99.90
34726;DHT22;20951;50.818;4.344;2023-05-24T01:53:21;11.10;99.90
34726;DHT22;20951;50.818;4.344;2023-05-24T01:55:54;11.00;99.90
34726;DHT22;20951;50.818;4.344;2023-05-24T01:58:25;11.10;99.90
34726;DHT22;20951;50.818;4.344;2023-05-24T02:00:55;11.10;99.90
34726;DHT22;20951;50.818;4.344;2023-05-24T02:03:26;11.10;99.90
34726;DHT22;20951;50.818;4.344;2023-05-24T02:05:58;11.10;99.90
34726;DHT22;20951;50.818;4.344;2023-05-24T02:08:29;11.00;99.90
34726;DHT22;20951;50.818;4.344;2023-05-24T02:11:00;11.00;99.90
34726;DHT22;20951;50.818;4.344;2023-05-24T02:13:31;10.90;99.90
34726;DHT22;20951;50.818;4.344;2023-05-24T02:16:02;11.00;99.90
34726;DHT22;20951;50.818;4.344;2023-05-24T02:18:33;11.10;99.90
34726;DHT22;20951;50.818;4.344;2023-05-24T02:21:04;11.10;99.90
34726;DHT22;20951;50.818;4.344;2023-05-24T02:23:35;11.00;99.90
34726;DHT22;20951;50.818;4.344;2023-05-24T02:26:05;11.00;99.90
34726;DHT22;20951;50.818;4.344;2023-05-24T02:28:37;11.10;99.90
34726;DHT22;20951;50.818;4.344;2023-05-24T02:31:08;11.10;99.90
34726;DHT22;20951;50.818;4.344;2023-05-24T02:33:38;11.10;99.90
34726;DHT22;20951;50.818;4.344;2023-05-24T02:36:08;10.90;99.90
34726;DHT22;20951;50.818;4.344;2023-05-24T02:38:38;11.00;99.90
34726;DHT22;20951;50.818;4.344;2023-05-24T02:41:08;11.00;99.90
34726;DHT22;20951;50.818;4.344;2023-05-24T02:43:44;10.90;99.90
34726;DHT22;20951;50.818;4.344;2023-05-24T02:46:14;10.80;99.90
34726;DHT22;20951;50.818;4.344;2023-05-24T02:48:43;10.80;99.90
34726;DHT22;20951;50.818;4.344;2023-05-24T02:51:13;10.80;99.90
34726;DHT22;20951;50.818;4.344;2023-05-24T02:53:43;10.80;99.90
34726;DHT22;20951;50.818;4.344;2023-05-24T02:56:13;10.80;99.90
34726;DHT22;20951;50.818;4.344;2023-05-24T02:58:43;10.80;99.90
34726;DHT22;20951;50.818;4.344;2023-05-24T03:01:13;10.80;99.90
34726;DHT22;20951;50.818;4.344;2023-05-24T03:03:43;10.80;99.90
34726;DHT22;20951;50.818;4.344;2023-05-24T03:06:14;10.90;99.90
34726;DHT22;20951;50.818;4.344;2023-05-24T03:08:44;10.90;99.90
34726;DHT22;20951;50.818;4.344;2023-05-24T03:11:16;10.90;99.90
34726;DHT22;20951;50.818;4.344;2023-05-24T03:13:48;11.00;99.90
34726;DHT22;20951;50.818;4.344;2023-05-24T03:16:18;11.10;99.90
34726;DHT22;20951;50.818;4.344;2023-05-24T03:18:48;11.00;99.90
34726;DHT22;20951;50.818;4.344;2023-05-24T03:21:20;11.00;99.90
34726;DHT22;20951;50.818;4.344;2023-05-24T03:23:51;11.00;99.90
34726;DHT22;20951;50.818;4.344;2023-05-24T03:26:21;10.90;99.90
34726;DHT22;20951;50.818;4.344;2023-05-24T03:28:51;10.80;99.90
34726;DHT22;20951;50.818;4.344;2023-05-24T03:31:22;10.90;99.90
34726;DHT22;20951;50.818;4.344;2023-05-24T03:33:53;10.80;99.90
34726;DHT22;20951;50.818;4.344;2023-05-24T03:36:23;10.80;99.90
34726;DHT22;20951;50.818;4.344;2023-05-24T03:38:54;10.70;99.90
34726;DHT22;20951;50.818;4.344;2023-05-24T03:41:24;10.60;99.90
34726;DHT22;20951;50.818;4.344;2023-05-24T03:43:54;10.60;99.90
34726;DHT22;20951;50.818;4.344;2023-05-24T03:46:25;10.70;99.90
34726;DHT22;20951;50.818;4.344;2023-05-24T03:48:55;10.60;99.90
34726;DHT22;20951;50.818;4.344;2023-05-24T03:51:24;10.60;99.90
34726;DHT22;20951;50.818;4.344;2023-05-24T03:53:59;10.60;99.90
34726;DHT22;20951;50.818;4.344;2023-05-24T03:56:29;10.60;99.90
34726;DHT22;20951;50.818;4.344;2023-05-24T03:59:00;10.70;99.90
34726;DHT22;20951;50.818;4.344;2023-05-24T04:01:30;10.80;99.90
34726;DHT22;20951;50.818;4.344;2023-05-24T04:04:02;10.70;99.90
34726;DHT22;20951;50.818;4.344;2023-05-24T04:06:33;10.70;99.90
34726;DHT22;20951;50.818;4.344;2023-05-24T04:09:03;10.90;99.90
34726;DHT22;20951;50.818;4.344;2023-05-24T04:11:33;10.90;99.90
34726;DHT22;20951;50.818;4.344;2023-05-24T04:14:04;10.80;99.90
34726;DHT22;20951;50.818;4.344;2023-05-24T04:16:34;10.70;99.90
34726;DHT22;20951;50.818;4.344;2023-05-24T04:19:06;10.60;99.90
34726;DHT22;20951;50.818;4.344;2023-05-24T04:21:37;10.60;99.90
34726;DHT22;20951;50.818;4.344;2023-05-24T04:24:07;10.70;99.90
34726;DHT22;20951;50.818;4.344;2023-05-24T04:26:37;10.80;99.90
34726;DHT22;20951;50.818;4.344;2023-05-24T04:29:07;10.80;99.90
34726;DHT22;20951;50.818;4.344;2023-05-24T04:31:39;10.70;99.90
34726;DHT22;20951;50.818;4.344;2023-05-24T04:34:10;10.60;99.90
34726;DHT22;20951;50.818;4.344;2023-05-24T04:36:41;10.60;99.90
34726;DHT22;20951;50.818;4.344;2023-05-24T04:39:12;10.60;99.90
34726;DHT22;20951;50.818;4.344;2023-05-24T04:41:42;10.50;99.90
34726;DHT22;20951;50.818;4.344;2023-05-24T04:44:13;10.60;99.90
34726;DHT22;20951;50.818;4.344;2023-05-24T04:46:42;10.70;99.90
34726;DHT22;20951;50.818;4.344;2023-05-24T04:49:13;10.80;99.90
34726;DHT22;20951;50.818;4.344;2023-05-24T04:51:44;10.90;99.90
34726;DHT22;20951;50.818;4.344;2023-05-24T04:54:14;10.90;99.90
34726;DHT22;20951;50.818;4.344;2023-05-24T04:56:44;10.90;99.90
34726;DHT22;20951;50.818;4.344;2023-05-24T04:59:14;10.80;99.90
34726;DHT22;20951;50.818;4.344;2023-05-24T05:01:44;10.70;99.90
34726;DHT22;20951;50.818;4.344;2023-05-24T05:04:15;10.70;99.90
34726;DHT22;20951;50.818;4.344;2023-05-24T05:06:46;10.70;99.90
34726;DHT22;20951;50.818;4.344;2023-05-24T05:09:14;10.70;99.90
34726;DHT22;20951;50.818;4.344;2023-05-24T05:11:44;10.80;99.90
34726;DHT22;20951;50.818;4.344;2023-05-24T05:14:12;10.80;99.90
34726;DHT22;20951;50.818;4.344;2023-05-24T05:16:40;10.80;99.90
34726;DHT22;20951;50.818;4.344;2023-05-24T05:19:10;10.80;99.90
34726;DHT22;20951;50.818;4.344;2023-05-24T05:21:36;10.90;99.90
34726;DHT22;20951;50.818;4.344;2023-05-24T05:24:04;10.90;99.90
34726;DHT22;20951;50.818;4.344;2023-05-24T05:26:32;10.80;99.90
34726;DHT22;20951;50.818;4.344;2023-05-24T05:29:03;10.80;99.90
34726;DHT22;20951;50.818;4.344;2023-05-24T05:31:34;11.00;99.90
34726;DHT22;20951;50.818;4.344;2023-05-24T05:34:04;11.10;99.90
34726;DHT22;20951;50.818;4.344;2023-05-24T05:36:36;11.30;99.90
34726;DHT22;20951;50.818;4.344;2023-05-24T05:39:07;11.30;99.90
34726;DHT22;20951;50.818;4.344;2023-05-24T05:41:40;11.50;99.90
34726;DHT22;20951;50.818;4.344;2023-05-24T05:44:10;11.60;99.90
34726;DHT22;20951;50.818;4.344;2023-05-24T05:46:40;11.70;99.90
34726;DHT22;20951;50.818;4.344;2023-05-24T05:49:12;11.70;99.90
34726;DHT22;20951;50.818;4.344;2023-05-24T05:51:44;11.90;99.90
34726;DHT22;20951;50.818;4.344;2023-05-24T05:54:15;12.00;99.90
34726;DHT22;20951;50.818;4.344;2023-05-24T05:56:46;11.90;99.90
34726;DHT22;20951;50.818;4.344;2023-05-24T05:59:17;12.10;99.90
34726;DHT22;20951;50.818;4.344;2023-05-24T06:01:48;12.10;99.90
34726;DHT22;20951;50.818;4.344;2023-05-24T06:04:18;12.10;99.90
34726;DHT22;20951;50.818;4.344;2023-05-24T06:06:49;12.20;99.90
34726;DHT22;20951;50.818;4.344;2023-05-24T06:09:19;12.20;99.90
34726;DHT22;20951;50.818;4.344;2023-05-24T06:11:48;12.30;99.90
34726;DHT22;20951;50.818;4.344;2023-05-24T06:14:18;12.60;99.90
34726;DHT22;20951;50.818;4.344;2023-05-24T06:16:49;13.10;99.90
34726;DHT22;20951;50.818;4.344;2023-05-24T06:19:21;14.60;99.90
34726;DHT22;20951;50.818;4.344;2023-05-24T06:21:52;16.30;99.90
34726;DHT22;20951;50.818;4.344;2023-05-24T06:24:23;17.10;99.90
34726;DHT22;20951;50.818;4.344;2023-05-24T06:26:55;18.10;99.90
34726;DHT22;20951;50.818;4.344;2023-05-24T06:29:26;19.40;99.90
34726;DHT22;20951;50.818;4.344;2023-05-24T06:31:57;20.00;99.90
34726;DHT22;20951;50.818;4.344;2023-05-24T06:34:27;19.80;99.90
34726;DHT22;20951;50.818;4.344;2023-05-24T06:36:58;20.30;99.90
34726;DHT22;20951;50.818;4.344;2023-05-24T06:39:29;20.70;99.90
34726;DHT22;20951;50.818;4.344;2023-05-24T06:42:00;20.50;99.90
34726;DHT22;20951;50.818;4.344;2023-05-24T06:44:30;20.10;99.90
34726;DHT22;20951;50.818;4.344;2023-05-24T06:47:01;20.80;99.90
34726;DHT22;20951;50.818;4.344;2023-05-24T06:49:32;21.00;99.90
34726;DHT22;20951;50.818;4.344;2023-05-24T06:52:02;22.10;99.90
34726;DHT22;20951;50.818;4.344;2023-05-24T06:54:34;23.90;98.40
34726;DHT22;20951;50.818;4.344;2023-05-24T06:57:05;25.50;95.20
34726;DHT22;20951;50.818;4.344;2023-05-24T06:59:35;26.40;92.80
34726;DHT22;20951;50.818;4.344;2023-05-24T07:02:05;27.80;90.50
34726;DHT22;20951;50.818;4.344;2023-05-24T07:04:35;27.60;84.20
34726;DHT22;20951;50.818;4.344;2023-05-24T07:07:07;27.00;85.80
34726;DHT22;20951;50.818;4.344;2023-05-24T07:09:40;27.60;83.30
34726;DHT22;20951;50.818;4.344;2023-05-24T07:12:10;28.40;82.10
34726;DHT22;20951;50.818;4.344;2023-05-24T07:14:40;28.70;79.60
34726;DHT22;20951;50.818;4.344;2023-05-24T07:17:10;29.10;77.00
34726;DHT22;20951;50.818;4.344;2023-05-24T07:19:41;27.20;78.40
34726;DHT22;20951;50.818;4.344;2023-05-24T07:22:11;25.60;81.40
34726;DHT22;20951;50.818;4.344;2023-05-24T07:24:42;24.50;83.30
34726;DHT22;20951;50.818;4.344;2023-05-24T07:27:13;23.60;85.00
34726;DHT22;20951;50.818;4.344;2023-05-24T07:29:45;22.30;89.40
34726;DHT22;20951;50.818;4.344;2023-05-24T07:32:16;21.20;91.30
34726;DHT22;20951;50.818;4.344;2023-05-24T07:34:47;19.80;93.80
34726;DHT22;20951;50.818;4.344;2023-05-24T07:37:18;18.90;96.20
34726;DHT22;20951;50.818;4.344;2023-05-24T07:39:50;18.00;98.30
34726;DHT22;20951;50.818;4.344;2023-05-24T07:42:20;17.50;99.20
34726;DHT22;20951;50.818;4.344;2023-05-24T07:44:51;17.70;99.90
34726;DHT22;20951;50.818;4.344;2023-05-24T07:47:22;17.80;99.50
34726;DHT22;20951;50.818;4.344;2023-05-24T07:50:14;17.30;99.90
34726;DHT22;20951;50.818;4.344;2023-05-24T07:52:44;16.70;99.90
34726;DHT22;20951;50.818;4.344;2023-05-24T07:58:05;16.40;99.90
34726;DHT22;20951;50.818;4.344;2023-05-24T08:00:35;16.50;99.90
34726;DHT22;20951;50.818;4.344;2023-05-24T08:03:07;16.70;99.90
34726;DHT22;20951;50.818;4.344;2023-05-24T08:05:40;17.00;99.90
34726;DHT22;20951;50.818;4.344;2023-05-24T08:08:10;17.30;99.90
34726;DHT22;20951;50.818;4.344;2023-05-24T08:10:42;17.70;99.90
34726;DHT22;20951;50.818;4.344;2023-05-24T08:13:12;19.10;99.90
34726;DHT22;20951;50.818;4.344;2023-05-24T08:15:45;20.60;99.60
34726;DHT22;20951;50.818;4.344;2023-05-24T08:18:15;20.40;97.70
34726;DHT22;20951;50.818;4.344;2023-05-24T08:20:46;19.90;97.20
34726;DHT22;20951;50.818;4.344;2023-05-24T08:23:17;19.50;97.90
34726;DHT22;20951;50.818;4.344;2023-05-24T08:25:48;19.80;97.90
34726;DHT22;20951;50.818;4.344;2023-05-24T08:28:19;20.50;97.20
34726;DHT22;20951;50.818;4.344;2023-05-24T08:30:50;21.10;96.20
34726;DHT22;20951;50.818;4.344;2023-05-24T08:33:20;21.70;94.90
34726;DHT22;20951;50.818;4.344;2023-05-24T08:35:52;21.30;95.30
34726;DHT22;20951;50.818;4.344;2023-05-24T08:38:24;20.70;95.40
34726;DHT22;20951;50.818;4.344;2023-05-24T08:40:55;20.40;96.30
34726;DHT22;20951;50.818;4.344;2023-05-24T08:43:26;19.80;97.10
34726;DHT22;20951;50.818;4.344;2023-05-24T08:45:59;19.10;98.10
34726;DHT22;20951;50.818;4.344;2023-05-24T08:48:45;18.20;99.40
34726;DHT22;20951;50.818;4.344;2023-05-24T08:51:15;17.80;99.90
34726;DHT22;20951;50.818;4.344;2023-05-24T08:53:46;18.10;99.90
34726;DHT22;20951;50.818;4.344;2023-05-24T08:56:20;18.10;99.90
34726;DHT22;20951;50.818;4.344;2023-05-24T08:58:50;18.40;99.90
34726;DHT22;20951;50.818;4.344;2023-05-24T09:01:21;19.00;99.90
34726;DHT22;20951;50.818;4.344;2023-05-24T09:03:51;19.60;98.60
34726;DHT22;20951;50.818;4.344;2023-05-24T09:06:21;20.30;96.80
34726;DHT22;20951;50.818;4.344;2023-05-24T09:08:52;20.80;95.40
34726;DHT22;20951;50.818;4.344;2023-05-24T09:11:23;21.40;95.60
34726;DHT22;20951;50.818;4.344;2023-05-24T09:13:55;21.70;94.10
34726;DHT22;20951;50.818;4.344;2023-05-24T09:16:25;20.90;95.00
34726;DHT22;20951;50.818;4.344;2023-05-24T09:18:55;21.00;95.10
34726;DHT22;20951;50.818;4.344;2023-05-24T09:21:25;21.30;95.00
34726;DHT22;20951;50.818;4.344;2023-05-24T09:23:55;22.60;93.40
34726;DHT22;20951;50.818;4.344;2023-05-24T09:26:25;24.40;91.60
34726;DHT22;20951;50.818;4.344;2023-05-24T09:28:58;24.80;90.10
34726;DHT22;20951;50.818;4.344;2023-05-24T09:31:37;24.20;90.60
34726;DHT22;20951;50.818;4.344;2023-05-24T09:34:12;22.60;92.00
34726;DHT22;20951;50.818;4.344;2023-05-24T09:36:44;20.90;95.10
34726;DHT22;20951;50.818;4.344;2023-05-24T09:39:17;19.20;97.80
34726;DHT22;20951;50.818;4.344;2023-05-24T09:41:52;19.30;98.40
34726;DHT22;20951;50.818;4.344;2023-05-24T09:44:26;21.00;96.10
34726;DHT22;20951;50.818;4.344;2023-05-24T09:47:01;22.30;93.80
34726;DHT22;20951;50.818;4.344;2023-05-24T09:49:37;22.90;91.50
34726;DHT22;20951;50.818;4.344;2023-05-24T09:52:07;23.00;91.90
34726;DHT22;20951;50.818;4.344;2023-05-24T09:54:37;23.10;91.80
34726;DHT22;20951;50.818;4.344;2023-05-24T09:57:08;23.30;91.70
34726;DHT22;20951;50.818;4.344;2023-05-24T09:59:40;23.30;91.40
34726;DHT22;20951;50.818;4.344;2023-05-24T10:02:13;23.20;91.70
34726;DHT22;20951;50.818;4.344;2023-05-24T10:04:46;22.70;92.20
34726;DHT22;20951;50.818;4.344;2023-05-24T10:07:16;22.40;92.80
34726;DHT22;20951;50.818;4.344;2023-05-24T10:09:47;22.30;93.30
34726;DHT22;20951;50.818;4.344;2023-05-24T10:12:19;21.10;93.90
34726;DHT22;20951;50.818;4.344;2023-05-24T10:14:50;20.20;95.60
34726;DHT22;20951;50.818;4.344;2023-05-24T10:17:21;19.90;96.20
34726;DHT22;20951;50.818;4.344;2023-05-24T10:19:55;20.00;96.10
34726;DHT22;20951;50.818;4.344;2023-05-24T10:22:28;20.50;96.10
34726;DHT22;20951;50.818;4.344;2023-05-24T10:25:00;20.80;95.60
34726;DHT22;20951;50.818;4.344;2023-05-24T10:27:34;21.40;94.80
34726;DHT22;20951;50.818;4.344;2023-05-24T10:30:33;21.80;93.50
34726;DHT22;20951;50.818;4.344;2023-05-24T10:33:06;22.70;93.40
34726;DHT22;20951;50.818;4.344;2023-05-24T10:35:37;22.50;92.90
34726;DHT22;20951;50.818;4.344;2023-05-24T10:38:07;22.50;92.70
34726;DHT22;20951;50.818;4.344;2023-05-24T10:40:41;22.90;92.30
34726;DHT22;20951;50.818;4.344;2023-05-24T10:43:11;23.30;91.80
34726;DHT22;20951;50.818;4.344;2023-05-24T10:45:40;23.50;91.10
34726;DHT22;20951;50.818;4.344;2023-05-24T10:50:42;25.90;90.20
34726;DHT22;20951;50.818;4.344;2023-05-24T10:55:56;24.20;90.10
34726;DHT22;20951;50.818;4.344;2023-05-24T11:01:25;23.60;90.30
34726;DHT22;20951;50.818;4.344;2023-05-24T11:04:06;23.70;91.10
34726;DHT22;20951;50.818;4.344;2023-05-24T11:06:46;22.80;91.50
34726;DHT22;20951;50.818;4.344;2023-05-24T11:09:16;21.60;92.90
34726;DHT22;20951;50.818;4.344;2023-05-24T11:11:52;21.70;93.70
34726;DHT22;20951;50.818;4.344;2023-05-24T11:14:28;21.80;93.40
34726;DHT22;20951;50.818;4.344;2023-05-24T11:16:58;21.20;93.30
34726;DHT22;20951;50.818;4.344;2023-05-24T11:19:33;21.20;94.00
34726;DHT22;20951;50.818;4.344;2023-05-24T11:22:06;21.50;93.30
34726;DHT22;20951;50.818;4.344;2023-05-24T11:24:37;22.50;92.40
34726;DHT22;20951;50.818;4.344;2023-05-24T11:27:09;23.10;91.20
34726;DHT22;20951;50.818;4.344;2023-05-24T11:29:45;23.50;90.70
34726;DHT22;20951;50.818;4.344;2023-05-24T11:32:19;24.10;89.40
34726;DHT22;20951;50.818;4.344;2023-05-24T11:34:48;23.80;88.80
34726;DHT22;20951;50.818;4.344;2023-05-24T11:37:20;23.80;88.30
34726;DHT22;20951;50.818;4.344;2023-05-24T11:39:51;23.70;88.70
34726;DHT22;20951;50.818;4.344;2023-05-24T11:42:21;24.60;85.00
34726;DHT22;20951;50.818;4.344;2023-05-24T11:44:50;24.30;85.00
34726;DHT22;20951;50.818;4.344;2023-05-24T11:47:19;23.40;85.10
34726;DHT22;20951;50.818;4.344;2023-05-24T11:49:50;22.80;86.60
34726;DHT22;20951;50.818;4.344;2023-05-24T11:52:20;22.00;88.60
34726;DHT22;20951;50.818;4.344;2023-05-24T11:54:52;21.50;89.50
34726;DHT22;20951;50.818;4.344;2023-05-24T11:57:37;21.20;90.50
34726;DHT22;20951;50.818;4.344;2023-05-24T12:00:10;21.40;90.60
34726;DHT22;20951;50.818;4.344;2023-05-24T12:02:44;20.90;91.50
34726;DHT22;20951;50.818;4.344;2023-05-24T12:05:19;22.40;90.80
34726;DHT22;20951;50.818;4.344;2023-05-24T12:10:35;26.20;83.50
34726;DHT22;20951;50.818;4.344;2023-05-24T12:13:06;26.30;81.60
34726;DHT22;20951;50.818;4.344;2023-05-24T12:15:47;25.50;82.10
34726;DHT22;20951;50.818;4.344;2023-05-24T12:18:22;25.40;83.20
34726;DHT22;20951;50.818;4.344;2023-05-24T12:20:53;25.00;83.80
34726;DHT22;20951;50.818;4.344;2023-05-24T12:23:48;24.10;85.40
34726;DHT22;20951;50.818;4.344;2023-05-24T12:26:23;23.30;86.80
34726;DHT22;20951;50.818;4.344;2023-05-24T12:29:00;22.80;88.80
34726;DHT22;20951;50.818;4.344;2023-05-24T12:31:41;23.60;87.90
34726;DHT22;20951;50.818;4.344;2023-05-24T12:34:19;23.00;88.80
34726;DHT22;20951;50.818;4.344;2023-05-24T12:36:51;22.00;90.70
34726;DHT22;20951;50.818;4.344;2023-05-24T12:39:26;21.30;91.80
34726;DHT22;20951;50.818;4.344;2023-05-24T12:42:04;20.80;92.40
34726;DHT22;20951;50.818;4.344;2023-05-24T12:44:35;20.40;93.30
34726;DHT22;20951;50.818;4.344;2023-05-24T12:47:06;20.20;93.90
34726;DHT22;20951;50.818;4.344;2023-05-24T12:49:43;20.30;93.60
34726;DHT22;20951;50.818;4.344;2023-05-24T12:52:14;20.50;93.60
34726;DHT22;20951;50.818;4.344;2023-05-24T12:54:48;20.80;93.00
34726;DHT22;20951;50.818;4.344;2023-05-24T12:57:19;20.50;93.00
34726;DHT22;20951;50.818;4.344;2023-05-24T12:59:50;20.00;94.10
34726;DHT22;20951;50.818;4.344;2023-05-24T13:02:21;19.90;94.70
34726;DHT22;20951;50.818;4.344;2023-05-24T13:04:55;20.00;94.80
34726;DHT22;20951;50.818;4.344;2023-05-24T13:07:26;19.80;94.90
34726;DHT22;20951;50.818;4.344;2023-05-24T13:09:57;19.90;94.90
34726;DHT22;20951;50.818;4.344;2023-05-24T13:12:28;19.80;95.10
34726;DHT22;20951;50.818;4.344;2023-05-24T13:14:59;20.00;95.20
34726;DHT22;20951;50.818;4.344;2023-05-24T13:17:31;20.30;95.10
34726;DHT22;20951;50.818;4.344;2023-05-24T13:20:06;19.80;95.30
34726;DHT22;20951;50.818;4.344;2023-05-24T13:22:38;19.70;95.50
34726;DHT22;20951;50.818;4.344;2023-05-24T13:25:10;19.90;94.90
34726;DHT22;20951;50.818;4.344;2023-05-24T13:27:41;20.20;94.90
34726;DHT22;20951;50.818;4.344;2023-05-24T13:30:12;20.50;94.20
34726;DHT22;20951;50.818;4.344;2023-05-24T13:32:44;20.90;93.50
34726;DHT22;20951;50.818;4.344;2023-05-24T13:35:15;21.10;93.20
34726;DHT22;20951;50.818;4.344;2023-05-24T13:37:45;21.20;92.90
34726;DHT22;20951;50.818;4.344;2023-05-24T13:40:16;21.50;92.50
34726;DHT22;20951;50.818;4.344;2023-05-24T13:42:47;21.10;92.50
34726;DHT22;20951;50.818;4.344;2023-05-24T13:45:17;20.40;93.40
34726;DHT22;20951;50.818;4.344;2023-05-24T13:47:48;19.90;94.30
34726;DHT22;20951;50.818;4.344;2023-05-24T13:50:20;19.90;94.70
34726;DHT22;20951;50.818;4.344;2023-05-24T13:52:50;20.10;94.40
34726;DHT22;20951;50.818;4.344;2023-05-24T13:55:21;20.00;94.30
34726;DHT22;20951;50.818;4.344;2023-05-24T13:57:51;19.80;94.70
34726;DHT22;20951;50.818;4.344;2023-05-24T14:00:23;19.80;94.70
34726;DHT22;20951;50.818;4.344;2023-05-24T14:02:53;19.70;94.80
34726;DHT22;20951;50.818;4.344;2023-05-24T14:05:24;19.50;95.10
34726;DHT22;20951;50.818;4.344;2023-05-24T14:07:56;19.20;95.80
34726;DHT22;20951;50.818;4.344;2023-05-24T14:10:32;18.90;96.40
34726;DHT22;20951;50.818;4.344;2023-05-24T14:13:03;18.80;97.00
34726;DHT22;20951;50.818;4.344;2023-05-24T14:15:34;18.70;97.30
34726;DHT22;20951;50.818;4.344;2023-05-24T14:18:04;18.20;98.10
34726;DHT22;20951;50.818;4.344;2023-05-24T14:20:36;18.00;99.10
34726;DHT22;20951;50.818;4.344;2023-05-24T14:23:10;17.90;98.90
34726;DHT22;20951;50.818;4.344;2023-05-24T14:25:41;18.10;99.00
34726;DHT22;20951;50.818;4.344;2023-05-24T14:28:13;18.30;98.70
34726;DHT22;20951;50.818;4.344;2023-05-24T14:30:44;18.40;98.70
34726;DHT22;20951;50.818;4.344;2023-05-24T14:33:15;18.60;98.80
34726;DHT22;20951;50.818;4.344;2023-05-24T14:35:45;18.60;99.30
34726;DHT22;20951;50.818;4.344;2023-05-24T14:38:16;18.80;99.40
34726;DHT22;20951;50.818;4.344;2023-05-24T14:40:46;18.80;99.10
34726;DHT22;20951;50.818;4.344;2023-05-24T14:43:18;18.80;98.50
34726;DHT22;20951;50.818;4.344;2023-05-24T14:45:49;18.70;98.90
34726;DHT22;20951;50.818;4.344;2023-05-24T14:48:20;18.70;99.10
34726;DHT22;20951;50.818;4.344;2023-05-24T14:50:51;18.70;99.00
34726;DHT22;20951;50.818;4.344;2023-05-24T14:53:22;18.70;99.20
34726;DHT22;20951;50.818;4.344;2023-05-24T14:55:53;18.70;99.00
34726;DHT22;20951;50.818;4.344;2023-05-24T14:58:24;18.70;99.30
34726;DHT22;20951;50.818;4.344;2023-05-24T15:00:54;18.70;99.40
34726;DHT22;20951;50.818;4.344;2023-05-24T15:03:27;19.00;99.10
34726;DHT22;20951;50.818;4.344;2023-05-24T15:06:02;19.30;98.90
34726;DHT22;20951;50.818;4.344;2023-05-24T15:08:35;19.40;98.60
34726;DHT22;20951;50.818;4.344;2023-05-24T15:11:07;19.40;98.30
34726;DHT22;20951;50.818;4.344;2023-05-24T15:13:38;19.30;98.30
34726;DHT22;20951;50.818;4.344;2023-05-24T15:16:09;19.30;98.60
34726;DHT22;20951;50.818;4.344;2023-05-24T15:18:40;19.00;99.00
34726;DHT22;20951;50.818;4.344;2023-05-24T15:21:11;18.80;99.50
34726;DHT22;20951;50.818;4.344;2023-05-24T15:23:42;18.80;99.70
34726;DHT22;20951;50.818;4.344;2023-05-24T15:26:13;18.90;99.90
34726;DHT22;20951;50.818;4.344;2023-05-24T15:28:43;19.10;99.50
34726;DHT22;20951;50.818;4.344;2023-05-24T15:31:13;19.30;99.20
34726;DHT22;20951;50.818;4.344;2023-05-24T15:33:41;19.40;99.00
34726;DHT22;20951;50.818;4.344;2023-05-24T15:36:11;19.50;98.70
34726;DHT22;20951;50.818;4.344;2023-05-24T15:38:43;19.50;99.00
34726;DHT22;20951;50.818;4.344;2023-05-24T15:41:14;19.50;98.80
34726;DHT22;20951;50.818;4.344;2023-05-24T15:43:42;19.40;98.70
34726;DHT22;20951;50.818;4.344;2023-05-24T15:46:09;19.50;98.40
34726;DHT22;20951;50.818;4.344;2023-05-24T15:48:35;19.60;98.60
34726;DHT22;20951;50.818;4.344;2023-05-24T15:51:01;19.60;98.40
34726;DHT22;20951;50.818;4.344;2023-05-24T15:53:27;19.70;98.30
34726;DHT22;20951;50.818;4.344;2023-05-24T15:55:53;19.70;97.80
34726;DHT22;20951;50.818;4.344;2023-05-24T15:58:21;19.50;98.40
34726;DHT22;20951;50.818;4.344;2023-05-24T16:00:47;19.30;98.60
34726;DHT22;20951;50.818;4.344;2023-05-24T16:03:15;19.10;99.10
34726;DHT22;20951;50.818;4.344;2023-05-24T16:05:41;18.80;99.70
34726;DHT22;20951;50.818;4.344;2023-05-24T16:08:07;18.50;99.90
34726;DHT22;20951;50.818;4.344;2023-05-24T16:10:34;18.50;99.90
34726;DHT22;20951;50.818;4.344;2023-05-24T16:13:00;18.50;99.90
34726;DHT22;20951;50.818;4.344;2023-05-24T16:15:27;18.50;99.90
34726;DHT22;20951;50.818;4.344;2023-05-24T16:17:54;18.40;99.90
34726;DHT22;20951;50.818;4.344;2023-05-24T16:20:20;18.20;99.90
34726;DHT22;20951;50.818;4.344;2023-05-24T16:22:47;18.20;99.90